Terminal Aerodrome Forecast
Issued by NWS

Home | Current Version | Previous Version | Text Only | Print | Product List | Glossary On
Versions: 1 2 3 4 5 6 7 8 9 10 11 12 13 14 15 16 17
000
FTUS45 KBOI 231605 AAA
TAFTWF
TAF AMD
KTWF 231605Z 2316/2412 21011KT P6SM SCT025
      TEMPO 2316/2317 BKN025
     FM231700 26015G24KT P6SM SKC
     FM240300 23013KT P6SM BKN150=

USA.gov is the U.S. government's official web portal to all federal, state and local government web resources and services.